createdAt,value
2019-02-28T00:00:18.785Z,7.20
2019-02-28T00:01:32.778Z,7.20
2019-02-28T00:02:35.314Z,7.20
2019-02-28T00:03:38.077Z,7.20
2019-02-28T00:04:40.728Z,7.20
2019-02-28T00:05:43.382Z,7.30
2019-02-28T00:06:46.199Z,7.40
2019-02-28T00:07:49.636Z,7.50
2019-02-28T00:08:53.758Z,7.50
2019-02-28T00:09:57.478Z,7.60
2019-02-28T00:11:01.993Z,7.60
2019-02-28T00:12:05.808Z,7.60
2019-02-28T00:13:10.162Z,7.60
2019-02-28T00:14:12.785Z,7.70
2019-02-28T00:15:15.422Z,7.80
2019-02-28T00:16:18.049Z,7.80
2019-02-28T00:17:20.792Z,7.80
2019-02-28T00:18:23.414Z,7.90
2019-02-28T00:19:27.068Z,7.90
2019-02-28T00:20:31.987Z,7.90
2019-02-28T00:21:34.142Z,7.90
2019-02-28T00:22:36.779Z,8.00
2019-02-28T00:23:39.680Z,8.00
2019-02-28T00:24:42.356Z,8.00
2019-02-28T00:25:44.933Z,8.00
2019-02-28T00:26:49.256Z,8.00
2019-02-28T00:27:52.663Z,8.00
2019-02-28T00:28:57.055Z,8.00
2019-02-28T00:30:00.950Z,8.00
2019-02-28T00:31:03.901Z,8.00
2019-02-28T00:32:06.498Z,8.00
2019-02-28T00:33:11.027Z,8.10
2019-02-28T00:34:13.959Z,8.10
2019-02-28T00:35:16.805Z,8.10
2019-02-28T00:36:19.833Z,8.10
2019-02-28T00:37:24.697Z,8.10
2019-02-28T00:38:29.623Z,8.10
2019-02-28T00:39:34.821Z,8.10
2019-02-28T00:40:38.500Z,8.20
2019-02-28T00:41:44.469Z,8.10
2019-02-28T00:42:48.077Z,8.10
2019-02-28T00:43:50.210Z,8.10
2019-02-28T00:44:52.909Z,8.10
2019-02-28T00:45:55.598Z,8.10
2019-02-28T00:46:58.291Z,8.20
2019-02-28T00:48:00.792Z,8.20
2019-02-28T00:49:03.316Z,8.20
2019-02-28T00:50:06.038Z,8.20
2019-02-28T00:51:08.663Z,8.20
2019-02-28T00:52:11.292Z,8.20
2019-02-28T00:53:14.082Z,8.30
2019-02-28T00:54:16.630Z,8.30
2019-02-28T00:55:19.305Z,8.30
2019-02-28T00:56:21.810Z,8.30
2019-02-28T00:57:24.697Z,8.30
2019-02-28T00:58:28.987Z,8.40
2019-02-28T00:59:32.435Z,8.40
2019-02-28T01:00:37.099Z,8.40
2019-02-28T01:01:39.673Z,8.40
2019-02-28T01:02:42.231Z,8.40
2019-02-28T01:03:45.614Z,8.40
2019-02-28T01:04:48.141Z,8.30
2019-02-28T01:05:50.771Z,8.30
2019-02-28T01:06:53.476Z,8.30
2019-02-28T01:07:56.145Z,8.30
2019-02-28T01:08:58.842Z,8.30
2019-02-28T01:10:04.575Z,8.30
2019-02-28T01:11:06.019Z,8.30
2019-02-28T01:12:08.702Z,8.30
2019-02-28T01:13:11.249Z,8.40
2019-02-28T01:14:13.916Z,8.40
2019-02-28T01:15:16.735Z,8.30
2019-02-28T01:16:20.071Z,8.30
2019-02-28T01:17:24.113Z,8.30
2019-02-28T01:18:27.269Z,8.30
2019-02-28T01:19:31.590Z,8.30
2019-02-28T01:20:34.114Z,8.30
2019-02-28T01:21:37.978Z,8.30
2019-02-28T01:22:40.530Z,8.30
2019-02-28T01:23:44.861Z,8.30
2019-02-28T01:24:47.418Z,8.30
2019-02-28T01:25:50.161Z,8.30
2019-02-28T01:26:52.725Z,8.20
2019-02-28T01:27:55.335Z,8.20
2019-02-28T01:29:01.368Z,8.20
2019-02-28T01:30:02.739Z,8.20
2019-02-28T01:31:05.607Z,8.20
2019-02-28T01:32:08.154Z,8.20
2019-02-28T01:33:10.741Z,8.20
2019-02-28T01:34:13.251Z,8.20
2019-02-28T01:35:15.761Z,8.30
2019-02-28T01:36:18.360Z,8.30
2019-02-28T01:37:22.705Z,8.30
2019-02-28T01:38:25.292Z,8.30
2019-02-28T01:39:30.734Z,8.30
2019-02-28T01:40:35.189Z,8.30
2019-02-28T01:41:38.071Z,8.30
2019-02-28T01:42:40.731Z,8.30
2019-02-28T01:43:43.493Z,8.30
2019-02-28T01:44:48.297Z,8.30
2019-02-28T01:45:50.917Z,8.30
2019-02-28T01:46:53.362Z,8.20
2019-02-28T01:47:56.014Z,8.20
2019-02-28T01:48:58.590Z,8.20
2019-02-28T01:50:02.136Z,8.20
2019-02-28T01:51:04.958Z,8.20
2019-02-28T01:52:10.092Z,8.20
2019-02-28T01:53:13.345Z,8.30
2019-02-28T01:54:16.039Z,8.30
2019-02-28T01:55:18.567Z,8.20
2019-02-28T01:56:21.203Z,8.20
2019-02-28T01:57:23.916Z,8.20
2019-02-28T01:58:26.473Z,8.20
2019-02-28T01:59:29.001Z,8.20
2019-02-28T02:00:31.665Z,8.20
2019-02-28T02:01:34.149Z,8.20
2019-02-28T02:02:38.045Z,8.30
2019-02-28T02:03:44.025Z,8.30
2019-02-28T02:04:46.703Z,8.30
2019-02-28T02:05:51.680Z,8.20
2019-02-28T02:06:53.906Z,8.20
2019-02-28T02:07:58.202Z,8.20
2019-02-28T02:09:00.847Z,8.30
2019-02-28T02:10:08.676Z,8.30
2019-02-28T02:11:11.275Z,8.30
2019-02-28T02:12:14.006Z,8.30
2019-02-28T02:13:16.879Z,8.30
2019-02-28T02:14:19.404Z,8.30
2019-02-28T02:15:22.269Z,8.30
2019-02-28T02:16:27.751Z,8.30
2019-02-28T02:17:29.337Z,8.30
2019-02-28T02:18:32.079Z,8.30
2019-02-28T02:19:34.602Z,8.30
2019-02-28T02:20:37.403Z,8.30
2019-02-28T02:21:40.213Z,8.30
2019-02-28T02:22:44.448Z,8.20
2019-02-28T02:23:49.594Z,8.20
2019-02-28T02:24:51.661Z,8.20
2019-02-28T02:25:54.596Z,8.20
2019-02-28T02:26:57.233Z,8.20
2019-02-28T02:27:59.949Z,8.20
2019-02-28T02:29:02.909Z,8.10
2019-02-28T02:30:13.304Z,8.20
2019-02-28T02:31:14.437Z,8.20
2019-02-28T02:32:17.201Z,8.10
2019-02-28T02:33:19.715Z,8.10
2019-02-28T02:34:24.269Z,8.10
2019-02-28T02:35:27.027Z,8.10
2019-02-28T02:36:29.566Z,8.10
2019-02-28T02:37:32.116Z,8.10
2019-02-28T02:38:40.138Z,8.10
2019-02-28T02:39:39.240Z,8.10
2019-02-28T02:40:41.983Z,8.10
2019-02-28T02:41:44.690Z,8.10
2019-02-28T02:42:49.749Z,8.10
2019-02-28T02:43:55.063Z,8.10
2019-02-28T02:44:56.830Z,8.10
2019-02-28T02:46:00.572Z,8.10
2019-02-28T02:47:03.211Z,8.10
2019-02-28T02:48:06.819Z,8.00
2019-02-28T02:49:18.297Z,8.00
2019-02-28T02:50:16.415Z,8.00
2019-02-28T02:51:19.023Z,8.00
2019-02-28T02:52:25.877Z,8.00
2019-02-28T02:53:26.574Z,8.00
2019-02-28T02:54:29.281Z,8.00
2019-02-28T02:55:32.268Z,8.10
2019-02-28T02:56:40.680Z,8.10
2019-02-28T02:57:39.561Z,8.00
2019-02-28T02:58:42.347Z,8.10
2019-02-28T02:59:45.029Z,8.10
2019-02-28T03:00:51.100Z,8.00
2019-02-28T03:01:56.157Z,8.00
2019-02-28T03:02:57.082Z,8.00
2019-02-28T03:03:59.695Z,8.10
2019-02-28T03:05:02.334Z,8.00
2019-02-28T03:06:12.227Z,8.00
2019-02-28T03:07:09.401Z,8.00
2019-02-28T03:08:11.990Z,8.00
2019-02-28T03:09:14.598Z,8.00
2019-02-28T03:10:19.686Z,8.00
2019-02-28T03:11:24.834Z,8.00
2019-02-28T03:12:31.037Z,8.00
2019-02-28T03:13:31.986Z,8.00
2019-02-28T03:14:34.672Z,8.00
2019-02-28T03:15:37.209Z,8.10
2019-02-28T03:16:40.024Z,8.10
2019-02-28T03:17:47.203Z,8.00
2019-02-28T03:18:48.548Z,8.00
2019-02-28T03:19:51.547Z,8.00
2019-02-28T03:20:54.112Z,8.00
2019-02-28T03:21:56.837Z,8.00
2019-02-28T03:23:02.160Z,8.00
2019-02-28T03:24:04.214Z,8.00
2019-02-28T03:25:07.966Z,8.00
2019-02-28T03:26:10.479Z,8.00
2019-02-28T03:27:18.721Z,8.00
2019-02-28T03:28:17.743Z,8.00
2019-02-28T03:29:20.500Z,8.10
2019-02-28T03:30:31.265Z,8.00
2019-02-28T03:31:27.695Z,8.00
2019-02-28T03:32:39.590Z,8.00
2019-02-28T03:33:34.833Z,8.10
2019-02-28T03:34:37.650Z,8.10
2019-02-28T03:35:43.709Z,8.00
2019-02-28T03:36:55.358Z,8.00
2019-02-28T03:37:49.050Z,8.00
2019-02-28T03:38:51.580Z,7.90
2019-02-28T03:40:02.710Z,7.90
2019-02-28T03:40:59.061Z,8.00
2019-02-28T03:42:02.964Z,8.00
2019-02-28T03:43:06.736Z,8.00
2019-02-28T03:44:09.951Z,8.00
2019-02-28T03:45:13.486Z,8.00
2019-02-28T03:46:16.043Z,8.00
2019-02-28T03:47:22.468Z,8.00
2019-02-28T03:48:23.249Z,8.10
2019-02-28T03:49:26.029Z,8.10
2019-02-28T03:50:28.869Z,8.10
2019-02-28T03:51:31.699Z,8.10
2019-02-28T03:52:42.274Z,8.10
2019-02-28T03:53:39.196Z,8.10
2019-02-28T03:54:41.751Z,8.10
2019-02-28T03:55:44.373Z,8.10
2019-02-28T03:56:51.369Z,8.10
2019-02-28T03:57:51.300Z,8.00
2019-02-28T03:58:54.219Z,8.00
2019-02-28T03:59:57.938Z,8.00
2019-02-28T04:01:00.615Z,8.10
2019-02-28T04:02:03.423Z,8.10
2019-02-28T04:03:05.953Z,8.10
2019-02-28T04:04:12.235Z,8.10
2019-02-28T04:05:15.072Z,8.10
2019-02-28T04:06:18.903Z,8.00
2019-02-28T04:07:23.226Z,8.00
2019-02-28T04:08:29.368Z,8.00
2019-02-28T04:09:30.428Z,8.00
2019-02-28T04:10:34.380Z,8.00
2019-02-28T04:11:37.412Z,8.00
2019-02-28T04:12:45.078Z,7.90
2019-02-28T04:13:44.755Z,7.90
2019-02-28T04:14:47.436Z,7.90
2019-02-28T04:16:07.562Z,7.90
2019-02-28T04:16:56.300Z,7.90
2019-02-28T04:18:06.502Z,7.90
2019-02-28T04:19:03.854Z,7.80
2019-02-28T04:20:07.059Z,7.90
2019-02-28T04:21:10.712Z,7.90
2019-02-28T04:22:14.307Z,7.90
2019-02-28T04:23:16.980Z,7.90
2019-02-28T04:24:19.538Z,7.90
2019-02-28T04:25:24.166Z,7.90
2019-02-28T04:26:29.762Z,7.80
2019-02-28T04:27:31.126Z,7.80
2019-02-28T04:28:33.780Z,7.80
2019-02-28T04:29:36.317Z,7.80
2019-02-28T04:30:42.640Z,7.80
2019-02-28T04:31:43.414Z,7.80
2019-02-28T04:32:46.049Z,7.70
2019-02-28T04:33:48.573Z,7.70
2019-02-28T04:34:51.457Z,7.70
2019-02-28T04:35:56.924Z,7.60
2019-02-28T04:36:58.791Z,7.60
2019-02-28T04:38:01.416Z,7.60
2019-02-28T04:39:06.041Z,7.50
2019-02-28T04:40:09.003Z,7.50
2019-02-28T04:41:11.573Z,7.50
2019-02-28T04:42:14.211Z,7.50
2019-02-28T04:43:17.836Z,7.50
2019-02-28T04:44:20.531Z,7.50
2019-02-28T04:45:23.399Z,7.50
2019-02-28T04:46:28.399Z,7.50
2019-02-28T04:47:32.444Z,7.50
2019-02-28T04:48:36.413Z,7.50
2019-02-28T04:49:38.939Z,7.40
2019-02-28T04:50:41.638Z,7.40
2019-02-28T04:51:44.563Z,7.40
2019-02-28T04:52:48.293Z,7.40
2019-02-28T04:53:53.158Z,7.40
2019-02-28T04:54:55.596Z,7.40
2019-02-28T04:55:58.357Z,7.40
2019-02-28T04:57:00.972Z,7.40
2019-02-28T04:58:03.754Z,7.40
2019-02-28T04:59:06.301Z,7.40
2019-02-28T05:00:09.317Z,7.40
2019-02-28T05:01:12.359Z,7.40
2019-02-28T05:02:19.676Z,7.40
2019-02-28T05:03:20.633Z,7.40
2019-02-28T05:04:23.253Z,7.40
2019-02-28T05:05:27.641Z,7.40
2019-02-28T05:06:30.174Z,7.40
2019-02-28T05:07:34.492Z,7.40
2019-02-28T05:08:38.950Z,7.40
2019-02-28T05:09:41.504Z,7.40
2019-02-28T05:10:44.211Z,7.40
2019-02-28T05:11:46.856Z,7.40
2019-02-28T05:12:49.583Z,7.40
2019-02-28T05:13:52.312Z,7.40
2019-02-28T05:14:55.322Z,7.40
2019-02-28T05:15:59.339Z,7.40
2019-02-28T05:17:02.251Z,7.40
2019-02-28T05:18:05.037Z,7.40
2019-02-28T05:19:07.715Z,7.40
2019-02-28T05:20:11.909Z,7.40
2019-02-28T05:21:16.561Z,7.40
2019-02-28T05:22:19.579Z,7.40
2019-02-28T05:23:23.353Z,7.40
2019-02-28T05:24:25.845Z,7.40
2019-02-28T05:25:28.556Z,7.30
2019-02-28T05:26:31.088Z,7.40
2019-02-28T05:27:35.546Z,7.40
2019-02-28T05:28:41.199Z,7.40
2019-02-28T05:29:44.730Z,7.40
2019-02-28T05:30:53.683Z,7.40
2019-02-28T05:31:58.075Z,7.40
2019-02-28T05:33:00.357Z,7.40
2019-02-28T05:34:03.102Z,7.50
2019-02-28T05:35:05.983Z,7.50
2019-02-28T05:36:08.511Z,7.50
2019-02-28T05:37:12.598Z,7.50
2019-02-28T05:38:20.705Z,7.50
2019-02-28T05:39:20.424Z,7.50
2019-02-28T05:40:22.999Z,7.40
2019-02-28T05:41:25.543Z,7.40
2019-02-28T05:42:28.281Z,7.40
2019-02-28T05:43:32.265Z,7.40
2019-02-28T05:44:37.437Z,7.40
2019-02-28T05:45:40.038Z,7.40
2019-02-28T05:46:42.676Z,7.40
2019-02-28T05:47:47.241Z,7.40
2019-02-28T05:48:50.985Z,7.30
2019-02-28T05:49:54.846Z,7.40
2019-02-28T05:50:57.504Z,7.40
2019-02-28T05:52:00.332Z,7.40
2019-02-28T05:53:03.108Z,7.40
2019-02-28T05:54:05.752Z,7.40
2019-02-28T05:55:08.659Z,7.40
2019-02-28T05:56:11.327Z,7.40
2019-02-28T05:57:14.073Z,7.40
2019-02-28T05:58:18.375Z,7.30
2019-02-28T05:59:26.143Z,7.40
2019-02-28T06:00:25.750Z,7.40
2019-02-28T06:01:28.403Z,7.40
2019-02-28T06:02:30.941Z,7.40
2019-02-28T06:03:33.541Z,7.40
2019-02-28T06:04:37.181Z,7.40
2019-02-28T06:05:43.321Z,7.40
2019-02-28T06:06:46.411Z,7.40
2019-02-28T06:07:49.373Z,7.40
2019-02-28T06:08:52.028Z,7.40
2019-02-28T06:09:56.779Z,7.40
2019-02-28T06:11:01.414Z,7.50
2019-02-28T06:12:06.569Z,7.50
2019-02-28T06:13:09.129Z,7.50
2019-02-28T06:14:12.810Z,7.50
2019-02-28T06:15:15.990Z,7.40
2019-02-28T06:16:20.332Z,7.40
2019-02-28T06:17:23.106Z,7.40
2019-02-28T06:18:26.659Z,7.40
2019-02-28T06:19:30.214Z,7.40
2019-02-28T06:20:32.907Z,7.40
2019-02-28T06:21:35.436Z,7.40
2019-02-28T06:22:38.330Z,7.40
2019-02-28T06:23:41.645Z,7.40
2019-02-28T06:24:45.866Z,7.40
2019-02-28T06:25:48.826Z,7.50
2019-02-28T06:26:51.491Z,7.50
2019-02-28T06:27:54.255Z,7.50
2019-02-28T06:28:56.822Z,7.50
2019-02-28T06:29:59.382Z,7.50
2019-02-28T06:31:02.316Z,7.50
2019-02-28T06:32:05.204Z,7.40
2019-02-28T06:33:08.053Z,7.50
2019-02-28T06:34:10.810Z,7.50
2019-02-28T06:35:16.129Z,7.50
2019-02-28T06:36:17.796Z,7.50
2019-02-28T06:37:20.528Z,7.50
2019-02-28T06:38:23.088Z,7.50
2019-02-28T06:39:26.857Z,7.50
2019-02-28T06:40:33.003Z,7.50
2019-02-28T06:41:34.871Z,7.60
2019-02-28T06:42:37.697Z,7.60
2019-02-28T06:43:40.477Z,7.60
2019-02-28T06:44:44.853Z,7.60
2019-02-28T06:45:47.544Z,7.60
2019-02-28T06:46:50.213Z,7.60
2019-02-28T06:47:52.766Z,7.60
2019-02-28T06:49:01.500Z,7.60
2019-02-28T06:49:59.934Z,7.60
2019-02-28T06:51:02.496Z,7.60
2019-02-28T06:52:05.437Z,7.70
2019-02-28T06:53:08.110Z,7.60
2019-02-28T06:54:10.834Z,7.60
2019-02-28T06:55:17.714Z,7.60
2019-02-28T06:56:22.635Z,7.70
2019-02-28T06:57:26.875Z,7.70
2019-02-28T06:58:30.484Z,7.70
2019-02-28T06:59:36.155Z,7.70
2019-02-28T07:00:38.875Z,7.70
2019-02-28T07:01:41.862Z,7.70
2019-02-28T07:02:46.612Z,7.70
2019-02-28T07:03:53.456Z,7.70
2019-02-28T07:04:53.890Z,7.80
2019-02-28T07:05:57.548Z,7.80
2019-02-28T07:07:00.898Z,7.80
2019-02-28T07:08:04.986Z,7.90
2019-02-28T07:09:07.633Z,7.90
2019-02-28T07:10:12.718Z,7.90
2019-02-28T07:11:15.241Z,8.00
2019-02-28T07:12:17.757Z,8.00
2019-02-28T07:13:20.801Z,8.00
2019-02-28T07:14:25.383Z,8.10
2019-02-28T07:15:28.048Z,8.20
2019-02-28T07:16:34.630Z,8.20
2019-02-28T07:17:35.334Z,8.20
2019-02-28T07:18:39.091Z,8.30
2019-02-28T07:19:41.615Z,8.30
2019-02-28T07:20:44.581Z,8.30
2019-02-28T07:21:47.221Z,8.30
2019-02-28T07:22:54.472Z,8.30
2019-02-28T07:23:54.659Z,8.30
2019-02-28T07:24:59.154Z,8.30
2019-02-28T07:26:01.801Z,8.30
2019-02-28T07:27:04.681Z,8.30
2019-02-28T07:28:07.257Z,8.30
2019-02-28T07:29:11.958Z,8.30
2019-02-28T07:30:18.784Z,8.30
2019-02-28T07:31:21.691Z,8.30
2019-02-28T07:32:26.205Z,8.40
2019-02-28T07:33:29.059Z,8.40
2019-02-28T07:34:31.696Z,8.40
2019-02-28T07:35:36.806Z,8.40
2019-02-28T07:36:41.503Z,8.40
2019-02-28T07:37:43.499Z,8.40
2019-02-28T07:38:46.096Z,8.40
2019-02-28T07:39:48.765Z,8.40
2019-02-28T07:40:51.466Z,8.40
2019-02-28T07:41:54.064Z,8.40
2019-02-28T07:42:56.807Z,8.40
2019-02-28T07:43:59.372Z,8.40
2019-02-28T07:45:02.010Z,8.40
2019-02-28T07:46:07.648Z,8.50
2019-02-28T07:47:09.260Z,8.50
2019-02-28T07:48:11.806Z,8.50
2019-02-28T07:49:14.533Z,8.50
2019-02-28T07:50:17.331Z,8.60
2019-02-28T07:51:22.672Z,8.60
2019-02-28T07:52:24.588Z,8.60
2019-02-28T07:53:29.007Z,8.60
2019-02-28T07:54:31.487Z,8.60
2019-02-28T07:55:34.268Z,8.70
2019-02-28T07:56:42.547Z,8.70
2019-02-28T07:57:41.707Z,8.70
2019-02-28T07:58:44.225Z,8.70
2019-02-28T07:59:46.822Z,8.70
2019-02-28T08:00:52.631Z,8.70
2019-02-28T08:01:55.357Z,8.70
2019-02-28T08:02:57.929Z,8.70
2019-02-28T08:04:00.605Z,8.70
2019-02-28T08:05:03.536Z,8.60
2019-02-28T08:06:06.287Z,8.70
2019-02-28T08:07:11.414Z,8.80
2019-02-28T08:08:13.689Z,8.80
2019-02-28T08:09:27.520Z,8.80
2019-02-28T08:10:30.284Z,8.90
2019-02-28T08:11:32.990Z,8.90
2019-02-28T08:12:35.520Z,9.00
2019-02-28T08:13:38.662Z,9.00
2019-02-28T08:14:43.642Z,9.00
2019-02-28T08:15:46.610Z,9.00
2019-02-28T08:16:49.408Z,9.00
2019-02-28T08:17:52.039Z,9.00
2019-02-28T08:18:54.743Z,9.00
2019-02-28T08:19:58.773Z,9.10
2019-02-28T08:21:01.868Z,9.20
2019-02-28T08:22:04.706Z,9.30
2019-02-28T08:23:07.222Z,9.50
2019-02-28T08:24:09.854Z,9.90
2019-02-28T08:25:12.555Z,10.20
2019-02-28T08:26:18.816Z,10.40
2019-02-28T08:27:21.217Z,10.60
2019-02-28T08:28:26.088Z,10.70
2019-02-28T08:29:28.842Z,10.80
2019-02-28T08:30:31.752Z,11.00
2019-02-28T08:31:34.553Z,11.30
2019-02-28T08:32:42.736Z,11.60
2019-02-28T08:33:41.960Z,11.80
2019-02-28T08:34:46.747Z,11.90
2019-02-28T08:35:50.915Z,12.00
2019-02-28T08:36:53.862Z,11.80
2019-02-28T08:37:57.370Z,11.80
2019-02-28T08:39:00.503Z,11.70
2019-02-28T08:40:03.991Z,11.60
2019-02-28T08:41:06.748Z,11.50
2019-02-28T08:42:09.286Z,11.50
2019-02-28T08:43:13.465Z,11.50
2019-02-28T08:44:22.750Z,11.50
2019-02-28T08:45:20.941Z,11.40
2019-02-28T08:46:23.611Z,11.30
2019-02-28T08:47:26.191Z,11.20
2019-02-28T08:48:32.403Z,11.20
2019-02-28T08:49:33.386Z,11.20
2019-02-28T08:50:35.925Z,11.20
2019-02-28T08:51:38.552Z,11.30
2019-02-28T08:52:42.272Z,11.30
2019-02-28T08:53:50.818Z,11.40
2019-02-28T08:54:49.498Z,11.40
2019-02-28T08:55:52.071Z,11.50
2019-02-28T08:56:54.820Z,11.60
2019-02-28T08:58:04.775Z,11.60
2019-02-28T08:59:11.397Z,11.60
2019-02-28T09:00:09.959Z,11.60
2019-02-28T09:01:12.524Z,11.60
2019-02-28T09:02:18.271Z,11.70
2019-02-28T09:03:19.811Z,11.70
2019-02-28T09:04:23.596Z,11.60
2019-02-28T09:05:29.940Z,11.60
2019-02-28T09:06:30.628Z,11.60
2019-02-28T09:07:33.240Z,11.60
2019-02-28T09:08:36.025Z,11.60
2019-02-28T09:09:38.631Z,11.70
2019-02-28T09:10:43.623Z,11.70
2019-02-28T09:11:46.027Z,11.80
2019-02-28T09:12:48.909Z,11.90
2019-02-28T09:13:51.563Z,11.90
2019-02-28T09:14:56.280Z,11.90
2019-02-28T09:16:01.942Z,11.90
2019-02-28T09:17:03.882Z,11.80
2019-02-28T09:18:07.356Z,11.80
2019-02-28T09:19:10.106Z,11.70
2019-02-28T09:20:13.590Z,11.60
2019-02-28T09:21:18.402Z,11.60
2019-02-28T09:22:20.985Z,11.50
2019-02-28T09:23:23.721Z,11.40
2019-02-28T09:24:26.740Z,11.30
2019-02-28T09:25:29.404Z,11.30
2019-02-28T09:26:32.353Z,11.40
2019-02-28T09:27:35.392Z,11.30
2019-02-28T09:28:39.498Z,11.30
2019-02-28T09:29:42.021Z,11.20
2019-02-28T09:30:44.844Z,11.20
2019-02-28T09:31:47.478Z,11.20
2019-02-28T09:32:50.047Z,11.20
2019-02-28T09:33:55.429Z,11.20
2019-02-28T09:34:57.186Z,11.10
2019-02-28T09:36:00.181Z,11.10
2019-02-28T09:37:02.723Z,11.10
2019-02-28T09:38:07.634Z,11.10
2019-02-28T09:39:09.863Z,11.00
2019-02-28T09:40:12.959Z,11.10
2019-02-28T09:41:15.497Z,11.10
2019-02-28T09:42:18.176Z,11.10
2019-02-28T09:43:23.906Z,11.10
2019-02-28T09:44:25.190Z,11.10
2019-02-28T09:45:27.847Z,11.10
2019-02-28T09:46:30.398Z,11.20
2019-02-28T09:47:33.221Z,11.20
2019-02-28T09:48:37.234Z,11.20
2019-02-28T09:49:40.564Z,11.20
2019-02-28T09:50:43.568Z,11.20
2019-02-28T09:51:48.209Z,11.20
2019-02-28T09:52:50.981Z,11.20
2019-02-28T09:53:53.708Z,11.20
2019-02-28T09:54:59.208Z,11.30
2019-02-28T09:56:01.098Z,11.30
2019-02-28T09:57:03.813Z,11.40
2019-02-28T09:58:08.280Z,11.40
2019-02-28T09:59:10.845Z,11.40
2019-02-28T10:00:15.986Z,11.50
2019-02-28T10:01:21.300Z,11.60
2019-02-28T10:02:25.101Z,11.60
2019-02-28T10:03:27.863Z,11.70
2019-02-28T10:04:31.294Z,11.70
2019-02-28T10:05:34.126Z,11.70
2019-02-28T10:06:36.970Z,11.70
2019-02-28T10:07:39.514Z,11.70
2019-02-28T10:08:42.053Z,11.70
2019-02-28T10:09:46.837Z,11.90
2019-02-28T10:10:52.409Z,11.90
2019-02-28T10:11:54.098Z,11.90
2019-02-28T10:12:56.968Z,12.00
2019-02-28T10:13:59.777Z,12.00
2019-02-28T10:15:07.283Z,12.10
2019-02-28T10:16:06.918Z,12.10
2019-02-28T10:17:09.633Z,12.10
2019-02-28T10:18:12.324Z,12.10
2019-02-28T10:19:15.995Z,12.20
2019-02-28T10:20:26.338Z,12.20
2019-02-28T10:21:26.616Z,12.30
2019-02-28T10:22:29.152Z,12.20
2019-02-28T10:23:32.135Z,12.30
2019-02-28T10:24:34.660Z,12.30
2019-02-28T10:25:42.075Z,12.30
2019-02-28T10:26:41.899Z,12.40
2019-02-28T10:27:44.820Z,12.40
2019-02-28T10:28:47.345Z,12.40
2019-02-28T10:29:49.867Z,12.40
2019-02-28T10:30:52.528Z,12.40
2019-02-28T10:31:55.183Z,12.30
2019-02-28T10:32:57.985Z,12.30
2019-02-28T10:34:00.518Z,12.20
2019-02-28T10:35:04.430Z,12.20
2019-02-28T10:36:09.346Z,12.10
2019-02-28T10:37:11.438Z,12.10
2019-02-28T10:38:13.950Z,12.10
2019-02-28T10:39:18.280Z,12.10
2019-02-28T10:40:22.322Z,12.10
2019-02-28T10:41:27.998Z,12.10
2019-02-28T10:42:29.812Z,12.20
2019-02-28T10:43:33.659Z,12.30
2019-02-28T10:44:38.014Z,12.30
2019-02-28T10:45:41.989Z,12.40
2019-02-28T10:46:44.946Z,12.40
2019-02-28T10:47:47.727Z,12.40
2019-02-28T10:48:51.112Z,12.40
2019-02-28T10:49:55.429Z,12.50
2019-02-28T10:50:58.471Z,12.50
2019-02-28T10:52:01.473Z,12.40
2019-02-28T10:53:05.962Z,12.50
2019-02-28T10:54:11.253Z,12.50
2019-02-28T10:55:14.911Z,12.50
2019-02-28T10:56:17.682Z,12.50
2019-02-28T10:57:20.536Z,12.60
2019-02-28T10:58:23.201Z,12.60
2019-02-28T10:59:25.945Z,12.60
2019-02-28T11:00:32.907Z,12.60
2019-02-28T11:01:35.293Z,12.70
2019-02-28T11:02:38.143Z,12.70
2019-02-28T11:03:40.729Z,12.60
2019-02-28T11:04:44.024Z,12.60
2019-02-28T11:05:47.134Z,12.70
2019-02-28T11:06:51.943Z,12.70
2019-02-28T11:07:54.530Z,12.70
2019-02-28T11:08:57.285Z,12.80
2019-02-28T11:10:01.939Z,12.80
2019-02-28T11:11:07.309Z,12.80
2019-02-28T11:12:11.158Z,12.80
2019-02-28T11:13:15.886Z,12.80
2019-02-28T11:14:18.959Z,12.90
2019-02-28T11:15:23.918Z,12.90
2019-02-28T11:16:26.438Z,13.00
2019-02-28T11:17:30.426Z,13.00
2019-02-28T11:18:34.184Z,13.10
2019-02-28T11:19:38.493Z,13.10
2019-02-28T11:20:41.475Z,13.10
2019-02-28T11:21:44.127Z,13.10
2019-02-28T11:22:46.744Z,13.10
2019-02-28T11:23:50.212Z,13.10
2019-02-28T11:24:54.102Z,13.10
2019-02-28T11:25:56.956Z,13.10
2019-02-28T11:26:59.541Z,13.10
2019-02-28T11:28:02.320Z,13.10
2019-02-28T11:29:04.873Z,13.10
2019-02-28T11:30:10.123Z,13.10
2019-02-28T11:31:16.306Z,13.10
2019-02-28T11:32:19.147Z,13.00
2019-02-28T11:33:22.895Z,13.00
2019-02-28T11:34:25.654Z,13.00
2019-02-28T11:35:29.414Z,13.00
2019-02-28T11:36:34.127Z,13.00
2019-02-28T11:37:37.245Z,13.00
2019-02-28T11:38:39.953Z,13.00
2019-02-28T11:39:43.919Z,13.00
2019-02-28T11:40:46.972Z,13.00
2019-02-28T11:41:52.723Z,13.00
2019-02-28T11:42:54.148Z,13.00
2019-02-28T11:43:56.719Z,13.00
2019-02-28T11:44:59.530Z,13.00
2019-02-28T11:46:03.134Z,13.00
2019-02-28T11:47:08.355Z,13.00
2019-02-28T11:48:12.728Z,13.00
2019-02-28T11:49:15.089Z,13.00
2019-02-28T11:50:18.061Z,13.10
2019-02-28T11:51:20.608Z,13.10
2019-02-28T11:52:24.497Z,13.10
2019-02-28T11:53:27.959Z,13.10
2019-02-28T11:54:30.672Z,13.20
2019-02-28T11:55:33.283Z,13.20
2019-02-28T11:56:35.979Z,13.10
2019-02-28T11:57:41.250Z,13.10
2019-02-28T11:58:43.219Z,13.20
2019-02-28T11:59:45.820Z,13.20
2019-02-28T12:00:48.576Z,13.20
2019-02-28T12:01:51.258Z,13.20
2019-02-28T12:02:59.765Z,13.30
2019-02-28T12:03:58.337Z,13.30
2019-02-28T12:05:00.865Z,13.30
2019-02-28T12:06:03.521Z,13.30
2019-02-28T12:07:07.875Z,13.30
2019-02-28T12:08:12.345Z,13.30
2019-02-28T12:09:16.273Z,13.30
2019-02-28T12:10:19.991Z,13.30
2019-02-28T12:11:25.148Z,13.30
2019-02-28T12:12:28.889Z,13.30
2019-02-28T12:13:33.259Z,13.30
2019-02-28T12:14:35.952Z,13.30
2019-02-28T12:15:39.157Z,13.20
2019-02-28T12:16:42.183Z,13.20
2019-02-28T12:17:44.770Z,13.20
2019-02-28T12:18:47.429Z,13.20
2019-02-28T12:19:50.686Z,13.20
2019-02-28T12:20:54.214Z,13.30
2019-02-28T12:21:56.816Z,13.30
2019-02-28T12:22:59.347Z,13.40
2019-02-28T12:24:02.018Z,13.40
2019-02-28T12:25:07.638Z,13.40
2019-02-28T12:26:14.421Z,13.40
2019-02-28T12:27:16.645Z,13.40
2019-02-28T12:28:19.693Z,13.40
2019-02-28T12:29:22.329Z,13.40
2019-02-28T12:30:26.193Z,13.40
2019-02-28T12:31:32.136Z,13.50
2019-02-28T12:32:35.118Z,13.50
2019-02-28T12:33:39.703Z,13.60
2019-02-28T12:34:43.523Z,13.70
2019-02-28T12:35:46.402Z,13.70
2019-02-28T12:36:50.256Z,13.80
2019-02-28T12:37:53.970Z,13.80
2019-02-28T12:38:59.398Z,13.80
2019-02-28T12:40:01.935Z,13.90
2019-02-28T12:41:04.692Z,13.90
2019-02-28T12:42:07.294Z,13.90
2019-02-28T12:43:09.894Z,13.90
2019-02-28T12:44:15.412Z,14.00
2019-02-28T12:45:28.757Z,14.00
2019-02-28T12:46:32.778Z,14.00
2019-02-28T12:47:38.667Z,14.00
2019-02-28T12:48:41.991Z,14.00
2019-02-28T12:49:44.689Z,14.00
2019-02-28T12:50:47.346Z,14.00
2019-02-28T12:51:51.648Z,14.00
2019-02-28T12:52:54.178Z,14.00
2019-02-28T12:53:59.236Z,13.90
2019-02-28T12:55:03.981Z,13.90
2019-02-28T12:56:06.184Z,13.80
2019-02-28T12:57:08.785Z,13.80
2019-02-28T12:58:11.566Z,13.70
2019-02-28T12:59:14.240Z,13.70
2019-02-28T13:00:28.612Z,13.70
2019-02-28T13:01:33.180Z,13.70
2019-02-28T13:02:36.073Z,13.60
2019-02-28T13:03:38.898Z,13.60
2019-02-28T13:04:43.365Z,13.50
2019-02-28T13:05:48.015Z,13.50
2019-02-28T13:06:50.689Z,13.50
2019-02-28T13:07:53.237Z,13.50
2019-02-28T13:08:55.769Z,13.50
2019-02-28T13:10:00.336Z,13.50
2019-02-28T13:11:04.664Z,13.50
2019-02-28T13:12:08.643Z,13.50
2019-02-28T13:13:12.103Z,13.50
2019-02-28T13:14:14.793Z,13.50
2019-02-28T13:15:17.672Z,13.40
2019-02-28T13:16:21.396Z,13.40
2019-02-28T13:17:24.262Z,13.40
2019-02-28T13:18:28.570Z,13.40
2019-02-28T13:19:31.406Z,13.40
2019-02-28T13:20:36.262Z,13.40
2019-02-28T13:21:38.751Z,13.40
2019-02-28T13:22:41.662Z,13.30
2019-02-28T13:23:44.315Z,13.30
2019-02-28T13:24:47.628Z,13.30
2019-02-28T13:25:50.430Z,13.30
2019-02-28T13:26:53.233Z,13.30
2019-02-28T13:27:55.904Z,13.30
2019-02-28T13:28:58.452Z,13.30
2019-02-28T13:30:01.169Z,13.30
2019-02-28T13:31:04.463Z,13.30
2019-02-28T13:32:07.280Z,13.30
2019-02-28T13:33:10.922Z,13.30
2019-02-28T13:34:15.560Z,13.40
2019-02-28T13:35:20.613Z,13.40
2019-02-28T13:36:25.957Z,13.40
2019-02-28T13:37:28.472Z,13.50
2019-02-28T13:38:31.372Z,13.50
2019-02-28T13:39:33.990Z,13.50
2019-02-28T13:40:36.700Z,13.50
2019-02-28T13:41:39.489Z,13.50
2019-02-28T13:42:44.389Z,13.60
2019-02-28T13:43:47.090Z,13.60
2019-02-28T13:44:49.699Z,13.60
2019-02-28T13:45:55.685Z,13.60
2019-02-28T13:46:58.684Z,13.70
2019-02-28T13:48:03.573Z,13.70
2019-02-28T13:49:08.533Z,13.70
2019-02-28T13:50:17.335Z,13.70
2019-02-28T13:51:20.281Z,13.70
2019-02-28T13:52:23.095Z,13.70
2019-02-28T13:53:27.010Z,13.70